sensor_id;sensor_type;location;lat;lon;timestamp;P1;durP1;ratioP1;P2;durP2;ratioP2
21624;SDS011;10974;51.034;3.744;2023-09-08T03:38:59;6.00;;;4.30;;
21624;SDS011;10974;51.034;3.744;2023-09-08T03:41:25;5.63;;;4.27;;
21624;SDS011;10974;51.034;3.744;2023-09-08T03:43:51;5.13;;;3.77;;
21624;SDS011;10974;51.034;3.744;2023-09-08T03:46:17;4.73;;;3.90;;
21624;SDS011;10974;51.034;3.744;2023-09-08T03:48:43;4.90;;;4.20;;
21624;SDS011;10974;51.034;3.744;2023-09-08T03:51:10;7.50;;;4.40;;
21624;SDS011;10974;51.034;3.744;2023-09-08T03:53:36;4.57;;;4.07;;
21624;SDS011;10974;51.034;3.744;2023-09-08T03:56:02;6.60;;;4.17;;
21624;SDS011;10974;51.034;3.744;2023-09-08T03:58:28;5.13;;;4.40;;
21624;SDS011;10974;51.034;3.744;2023-09-08T04:00:54;6.33;;;4.63;;
21624;SDS011;10974;51.034;3.744;2023-09-08T04:03:20;7.93;;;4.40;;
21624;SDS011;10974;51.034;3.744;2023-09-08T04:05:46;6.30;;;4.07;;
21624;SDS011;10974;51.034;3.744;2023-09-08T04:08:12;5.40;;;4.90;;
21624;SDS011;10974;51.034;3.744;2023-09-08T04:10:38;4.77;;;4.27;;
21624;SDS011;10974;51.034;3.744;2023-09-08T04:13:04;5.20;;;4.50;;
21624;SDS011;10974;51.034;3.744;2023-09-08T04:15:30;4.27;;;3.87;;
21624;SDS011;10974;51.034;3.744;2023-09-08T04:17:56;6.07;;;4.60;;
21624;SDS011;10974;51.034;3.744;2023-09-08T04:20:22;5.27;;;3.90;;
21624;SDS011;10974;51.034;3.744;2023-09-08T04:22:49;5.83;;;3.83;;
21624;SDS011;10974;51.034;3.744;2023-09-08T04:25:15;5.60;;;4.37;;
21624;SDS011;10974;51.034;3.744;2023-09-08T04:27:41;4.83;;;4.33;;
21624;SDS011;10974;51.034;3.744;2023-09-08T04:30:07;5.23;;;4.30;;
21624;SDS011;10974;51.034;3.744;2023-09-08T04:32:33;6.10;;;4.30;;
21624;SDS011;10974;51.034;3.744;2023-09-08T04:34:59;5.00;;;4.50;;
21624;SDS011;10974;51.034;3.744;2023-09-08T04:37:25;6.53;;;4.37;;
21624;SDS011;10974;51.034;3.744;2023-09-08T04:39:51;4.70;;;4.20;;
21624;SDS011;10974;51.034;3.744;2023-09-08T04:42:17;6.80;;;4.40;;
21624;SDS011;10974;51.034;3.744;2023-09-08T04:44:44;8.83;;;4.60;;
21624;SDS011;10974;51.034;3.744;2023-09-08T04:47:10;5.97;;;4.53;;
21624;SDS011;10974;51.034;3.744;2023-09-08T04:49:36;5.93;;;4.20;;
21624;SDS011;10974;51.034;3.744;2023-09-08T04:52:02;5.73;;;4.40;;
21624;SDS011;10974;51.034;3.744;2023-09-08T04:54:28;4.90;;;4.50;;
21624;SDS011;10974;51.034;3.744;2023-09-08T04:56:54;6.47;;;3.97;;
21624;SDS011;10974;51.034;3.744;2023-09-08T04:59:21;5.70;;;5.00;;
21624;SDS011;10974;51.034;3.744;2023-09-08T05:01:48;5.23;;;4.73;;
21624;SDS011;10974;51.034;3.744;2023-09-08T05:04:14;6.23;;;4.13;;
21624;SDS011;10974;51.034;3.744;2023-09-08T05:06:40;5.90;;;4.50;;
21624;SDS011;10974;51.034;3.744;2023-09-08T05:09:06;5.90;;;4.60;;
21624;SDS011;10974;51.034;3.744;2023-09-08T05:11:32;7.30;;;4.50;;
21624;SDS011;10974;51.034;3.744;2023-09-08T05:13:58;5.27;;;4.77;;
21624;SDS011;10974;51.034;3.744;2023-09-08T05:16:24;7.57;;;5.00;;
21624;SDS011;10974;51.034;3.744;2023-09-08T05:19:02;5.70;;;4.87;;
21624;SDS011;10974;51.034;3.744;2023-09-08T05:21:28;6.03;;;4.50;;
21624;SDS011;10974;51.034;3.744;2023-09-08T05:23:54;5.23;;;4.70;;
21624;SDS011;10974;51.034;3.744;2023-09-08T05:26:20;8.33;;;5.43;;
21624;SDS011;10974;51.034;3.744;2023-09-08T05:28:46;9.63;;;4.90;;
21624;SDS011;10974;51.034;3.744;2023-09-08T05:31:12;9.07;;;5.20;;
21624;SDS011;10974;51.034;3.744;2023-09-08T05:33:38;8.00;;;4.47;;
21624;SDS011;10974;51.034;3.744;2023-09-08T05:36:04;6.70;;;5.27;;
21624;SDS011;10974;51.034;3.744;2023-09-08T05:38:30;5.73;;;4.77;;
21624;SDS011;10974;51.034;3.744;2023-09-08T05:40:57;6.20;;;4.80;;
21624;SDS011;10974;51.034;3.744;2023-09-08T05:43:24;6.90;;;4.80;;
21624;SDS011;10974;51.034;3.744;2023-09-08T05:45:50;7.10;;;5.40;;
21624;SDS011;10974;51.034;3.744;2023-09-08T05:48:16;10.40;;;5.07;;
21624;SDS011;10974;51.034;3.744;2023-09-08T05:50:43;6.63;;;4.83;;
21624;SDS011;10974;51.034;3.744;2023-09-08T05:53:09;13.50;;;8.20;;
21624;SDS011;10974;51.034;3.744;2023-09-08T05:55:35;11.20;;;7.60;;
21624;SDS011;10974;51.034;3.744;2023-09-08T05:58:01;12.43;;;8.13;;
21624;SDS011;10974;51.034;3.744;2023-09-08T06:00:27;12.47;;;7.30;;
21624;SDS011;10974;51.034;3.744;2023-09-08T06:02:53;12.30;;;6.50;;
21624;SDS011;10974;51.034;3.744;2023-09-08T06:05:19;11.90;;;7.03;;
21624;SDS011;10974;51.034;3.744;2023-09-08T06:07:45;11.57;;;6.50;;
21624;SDS011;10974;51.034;3.744;2023-09-08T06:10:14;15.20;;;8.53;;
21624;SDS011;10974;51.034;3.744;2023-09-08T06:12:40;10.70;;;7.63;;
21624;SDS011;10974;51.034;3.744;2023-09-08T06:15:06;22.93;;;8.57;;
21624;SDS011;10974;51.034;3.744;2023-09-08T06:17:33;17.03;;;9.20;;
21624;SDS011;10974;51.034;3.744;2023-09-08T06:19:59;12.90;;;8.20;;
21624;SDS011;10974;51.034;3.744;2023-09-08T06:22:25;9.80;;;8.00;;
21624;SDS011;10974;51.034;3.744;2023-09-08T06:24:51;16.67;;;8.60;;
21624;SDS011;10974;51.034;3.744;2023-09-08T06:27:17;15.30;;;8.10;;
21624;SDS011;10974;51.034;3.744;2023-09-08T06:29:43;15.33;;;8.73;;
21624;SDS011;10974;51.034;3.744;2023-09-08T06:32:10;13.77;;;8.73;;
21624;SDS011;10974;51.034;3.744;2023-09-08T06:34:36;17.20;;;8.53;;
21624;SDS011;10974;51.034;3.744;2023-09-08T06:37:02;9.63;;;7.63;;
21624;SDS011;10974;51.034;3.744;2023-09-08T06:39:28;13.73;;;8.60;;
21624;SDS011;10974;51.034;3.744;2023-09-08T06:41:54;16.20;;;7.37;;
21624;SDS011;10974;51.034;3.744;2023-09-08T06:44:20;11.83;;;7.20;;
21624;SDS011;10974;51.034;3.744;2023-09-08T06:46:46;9.93;;;6.60;;
21624;SDS011;10974;51.034;3.744;2023-09-08T06:49:13;9.70;;;7.03;;
21624;SDS011;10974;51.034;3.744;2023-09-08T06:51:39;10.27;;;7.13;;
21624;SDS011;10974;51.034;3.744;2023-09-08T06:54:05;11.50;;;6.30;;
21624;SDS011;10974;51.034;3.744;2023-09-08T06:56:31;13.53;;;6.03;;
21624;SDS011;10974;51.034;3.744;2023-09-08T06:58:57;16.43;;;6.70;;
21624;SDS011;10974;51.034;3.744;2023-09-08T07:01:24;10.97;;;6.60;;
21624;SDS011;10974;51.034;3.744;2023-09-08T07:03:50;8.80;;;6.20;;
21624;SDS011;10974;51.034;3.744;2023-09-08T07:06:16;15.13;;;6.50;;
21624;SDS011;10974;51.034;3.744;2023-09-08T07:08:42;12.90;;;6.03;;
21624;SDS011;10974;51.034;3.744;2023-09-08T07:11:09;10.00;;;5.67;;
21624;SDS011;10974;51.034;3.744;2023-09-08T07:13:35;8.57;;;6.30;;
21624;SDS011;10974;51.034;3.744;2023-09-08T07:16:01;10.20;;;6.33;;
21624;SDS011;10974;51.034;3.744;2023-09-08T07:18:27;9.50;;;5.67;;
21624;SDS011;10974;51.034;3.744;2023-09-08T07:20:53;10.17;;;5.87;;
21624;SDS011;10974;51.034;3.744;2023-09-08T07:23:19;15.50;;;6.10;;
21624;SDS011;10974;51.034;3.744;2023-09-08T07:25:48;8.77;;;5.53;;
21624;SDS011;10974;51.034;3.744;2023-09-08T07:28:15;9.47;;;5.83;;
21624;SDS011;10974;51.034;3.744;2023-09-08T07:30:41;8.47;;;5.53;;
21624;SDS011;10974;51.034;3.744;2023-09-08T07:33:07;9.87;;;6.30;;
21624;SDS011;10974;51.034;3.744;2023-09-08T07:35:37;7.60;;;5.60;;
21624;SDS011;10974;51.034;3.744;2023-09-08T07:38:03;7.83;;;5.63;;
21624;SDS011;10974;51.034;3.744;2023-09-08T07:40:29;8.50;;;5.70;;
21624;SDS011;10974;51.034;3.744;2023-09-08T07:42:55;7.90;;;5.83;;
21624;SDS011;10974;51.034;3.744;2023-09-08T07:45:21;7.60;;;5.03;;
21624;SDS011;10974;51.034;3.744;2023-09-08T07:47:48;11.90;;;5.73;;
21624;SDS011;10974;51.034;3.744;2023-09-08T07:50:18;14.30;;;6.57;;
21624;SDS011;10974;51.034;3.744;2023-09-08T07:52:45;9.57;;;6.40;;
21624;SDS011;10974;51.034;3.744;2023-09-08T07:55:11;7.30;;;5.30;;
21624;SDS011;10974;51.034;3.744;2023-09-08T07:57:37;6.17;;;5.27;;
21624;SDS011;10974;51.034;3.744;2023-09-08T08:00:04;9.00;;;5.07;;
21624;SDS011;10974;51.034;3.744;2023-09-08T08:02:30;6.30;;;5.70;;
21624;SDS011;10974;51.034;3.744;2023-09-08T08:04:56;6.83;;;5.77;;
21624;SDS011;10974;51.034;3.744;2023-09-08T08:07:22;7.77;;;5.97;;
21624;SDS011;10974;51.034;3.744;2023-09-08T08:09:48;6.20;;;5.53;;
21624;SDS011;10974;51.034;3.744;2023-09-08T08:12:14;6.00;;;5.37;;
21624;SDS011;10974;51.034;3.744;2023-09-08T08:14:40;6.13;;;5.53;;
21624;SDS011;10974;51.034;3.744;2023-09-08T08:17:06;5.90;;;5.30;;
21624;SDS011;10974;51.034;3.744;2023-09-08T08:19:32;8.03;;;5.60;;
21624;SDS011;10974;51.034;3.744;2023-09-08T08:21:58;7.40;;;4.90;;
21624;SDS011;10974;51.034;3.744;2023-09-08T08:24:25;5.77;;;5.17;;
21624;SDS011;10974;51.034;3.744;2023-09-08T08:26:51;5.50;;;4.90;;
21624;SDS011;10974;51.034;3.744;2023-09-08T08:29:17;5.50;;;5.00;;
21624;SDS011;10974;51.034;3.744;2023-09-08T08:31:43;5.27;;;4.87;;
21624;SDS011;10974;51.034;3.744;2023-09-08T08:34:09;5.67;;;4.57;;
21624;SDS011;10974;51.034;3.744;2023-09-08T08:36:35;6.00;;;5.40;;
21624;SDS011;10974;51.034;3.744;2023-09-08T08:39:01;7.00;;;5.60;;
21624;SDS011;10974;51.034;3.744;2023-09-08T08:41:28;5.67;;;5.17;;
21624;SDS011;10974;51.034;3.744;2023-09-08T08:43:55;5.70;;;5.20;;
21624;SDS011;10974;51.034;3.744;2023-09-08T08:46:21;5.90;;;5.37;;
21624;SDS011;10974;51.034;3.744;2023-09-08T08:48:48;6.60;;;5.57;;
21624;SDS011;10974;51.034;3.744;2023-09-08T08:51:17;5.83;;;4.83;;
21624;SDS011;10974;51.034;3.744;2023-09-08T08:53:43;7.77;;;5.20;;
21624;SDS011;10974;51.034;3.744;2023-09-08T08:56:09;4.77;;;4.37;;
21624;SDS011;10974;51.034;3.744;2023-09-08T08:58:37;6.27;;;5.17;;
21624;SDS011;10974;51.034;3.744;2023-09-08T09:01:03;5.07;;;4.57;;
21624;SDS011;10974;51.034;3.744;2023-09-08T09:03:29;6.27;;;5.10;;
21624;SDS011;10974;51.034;3.744;2023-09-08T09:05:57;5.27;;;4.77;;
21624;SDS011;10974;51.034;3.744;2023-09-08T09:08:24;6.07;;;4.90;;
21624;SDS011;10974;51.034;3.744;2023-09-08T09:10:51;4.93;;;4.43;;
21624;SDS011;10974;51.034;3.744;2023-09-08T09:13:17;5.07;;;4.67;;
21624;SDS011;10974;51.034;3.744;2023-09-08T09:15:43;5.20;;;4.70;;
21624;SDS011;10974;51.034;3.744;2023-09-08T09:18:11;6.17;;;5.00;;
21624;SDS011;10974;51.034;3.744;2023-09-08T09:20:37;5.00;;;4.60;;
21624;SDS011;10974;51.034;3.744;2023-09-08T09:23:05;5.30;;;4.83;;
21624;SDS011;10974;51.034;3.744;2023-09-08T09:25:31;5.53;;;4.83;;
21624;SDS011;10974;51.034;3.744;2023-09-08T09:28:01;4.57;;;4.17;;
21624;SDS011;10974;51.034;3.744;2023-09-08T09:30:28;4.33;;;4.00;;
21624;SDS011;10974;51.034;3.744;2023-09-08T09:33:11;4.90;;;4.50;;
21624;SDS011;10974;51.034;3.744;2023-09-08T09:38:09;4.80;;;4.40;;
21624;SDS011;10974;51.034;3.744;2023-09-08T09:40:36;4.73;;;4.33;;
21624;SDS011;10974;51.034;3.744;2023-09-08T09:43:02;4.57;;;4.27;;
21624;SDS011;10974;51.034;3.744;2023-09-08T09:45:30;5.20;;;4.70;;
21624;SDS011;10974;51.034;3.744;2023-09-08T09:47:56;5.30;;;4.80;;
21624;SDS011;10974;51.034;3.744;2023-09-08T09:50:29;4.67;;;4.27;;
21624;SDS011;10974;51.034;3.744;2023-09-08T09:52:59;4.47;;;4.17;;
21624;SDS011;10974;51.034;3.744;2023-09-08T09:55:26;6.27;;;4.97;;
21624;SDS011;10974;51.034;3.744;2023-09-08T09:57:56;4.67;;;4.27;;
21624;SDS011;10974;51.034;3.744;2023-09-08T10:00:24;4.90;;;4.50;;
21624;SDS011;10974;51.034;3.744;2023-09-08T10:02:51;4.80;;;4.30;;
21624;SDS011;10974;51.034;3.744;2023-09-08T10:05:17;5.03;;;4.53;;
21624;SDS011;10974;51.034;3.744;2023-09-08T10:07:43;5.00;;;4.43;;
21624;SDS011;10974;51.034;3.744;2023-09-08T10:10:11;4.87;;;4.47;;
21624;SDS011;10974;51.034;3.744;2023-09-08T10:12:37;5.30;;;4.80;;
21624;SDS011;10974;51.034;3.744;2023-09-08T10:15:05;4.97;;;4.07;;
21624;SDS011;10974;51.034;3.744;2023-09-08T10:17:32;5.00;;;4.60;;
21624;SDS011;10974;51.034;3.744;2023-09-08T10:20:00;4.80;;;4.40;;
21624;SDS011;10974;51.034;3.744;2023-09-08T10:22:33;4.97;;;4.47;;
21624;SDS011;10974;51.034;3.744;2023-09-08T10:25:00;4.53;;;4.23;;
21624;SDS011;10974;51.034;3.744;2023-09-08T10:27:30;4.93;;;3.83;;
21624;SDS011;10974;51.034;3.744;2023-09-08T10:29:58;4.07;;;3.77;;
21624;SDS011;10974;51.034;3.744;2023-09-08T10:32:26;5.60;;;4.87;;
21624;SDS011;10974;51.034;3.744;2023-09-08T10:34:52;4.90;;;4.50;;
21624;SDS011;10974;51.034;3.744;2023-09-08T10:37:22;4.90;;;4.40;;
21624;SDS011;10974;51.034;3.744;2023-09-08T10:42:40;4.83;;;4.30;;
21624;SDS011;10974;51.034;3.744;2023-09-08T10:45:16;4.20;;;3.83;;
21624;SDS011;10974;51.034;3.744;2023-09-08T10:50:31;5.23;;;4.53;;
21624;SDS011;10974;51.034;3.744;2023-09-08T10:53:05;4.23;;;3.87;;
21624;SDS011;10974;51.034;3.744;2023-09-08T10:55:50;4.40;;;4.00;;
21624;SDS011;10974;51.034;3.744;2023-09-08T10:58:19;4.73;;;4.27;;
21624;SDS011;10974;51.034;3.744;2023-09-08T11:00:46;5.53;;;4.57;;
21624;SDS011;10974;51.034;3.744;2023-09-08T11:03:13;4.60;;;4.20;;
21624;SDS011;10974;51.034;3.744;2023-09-08T11:05:41;4.60;;;4.27;;
21624;SDS011;10974;51.034;3.744;2023-09-08T11:08:08;4.37;;;3.97;;
21624;SDS011;10974;51.034;3.744;2023-09-08T11:10:34;5.20;;;4.60;;
21624;SDS011;10974;51.034;3.744;2023-09-08T11:13:02;4.67;;;4.27;;
21624;SDS011;10974;51.034;3.744;2023-09-08T11:15:28;4.60;;;4.20;;
21624;SDS011;10974;51.034;3.744;2023-09-08T11:17:55;4.50;;;4.10;;
21624;SDS011;10974;51.034;3.744;2023-09-08T11:20:27;4.17;;;3.87;;
21624;SDS011;10974;51.034;3.744;2023-09-08T11:22:54;5.17;;;3.90;;
21624;SDS011;10974;51.034;3.744;2023-09-08T11:25:20;4.50;;;4.10;;
21624;SDS011;10974;51.034;3.744;2023-09-08T11:27:47;4.50;;;4.10;;
21624;SDS011;10974;51.034;3.744;2023-09-08T11:30:15;4.73;;;4.33;;
21624;SDS011;10974;51.034;3.744;2023-09-08T11:32:41;4.93;;;4.00;;
21624;SDS011;10974;51.034;3.744;2023-09-08T11:35:08;4.20;;;3.90;;
21624;SDS011;10974;51.034;3.744;2023-09-08T11:37:36;4.40;;;4.00;;
21624;SDS011;10974;51.034;3.744;2023-09-08T11:40:03;4.30;;;3.93;;
21624;SDS011;10974;51.034;3.744;2023-09-08T11:42:34;3.90;;;3.60;;
21624;SDS011;10974;51.034;3.744;2023-09-08T11:45:01;5.57;;;4.17;;
21624;SDS011;10974;51.034;3.744;2023-09-08T11:47:29;4.97;;;4.50;;
21624;SDS011;10974;51.034;3.744;2023-09-08T11:49:55;4.73;;;4.20;;
21624;SDS011;10974;51.034;3.744;2023-09-08T11:52:23;4.10;;;3.80;;
21624;SDS011;10974;51.034;3.744;2023-09-08T11:54:49;5.10;;;4.10;;
21624;SDS011;10974;51.034;3.744;2023-09-08T11:57:16;4.50;;;4.10;;
21624;SDS011;10974;51.034;3.744;2023-09-08T11:59:43;4.60;;;4.30;;
21624;SDS011;10974;51.034;3.744;2023-09-08T12:02:11;7.97;;;4.23;;
21624;SDS011;10974;51.034;3.744;2023-09-08T12:04:37;4.40;;;4.00;;
21624;SDS011;10974;51.034;3.744;2023-09-08T12:07:07;4.33;;;3.93;;
21624;SDS011;10974;51.034;3.744;2023-09-08T12:09:34;4.53;;;4.17;;
21624;SDS011;10974;51.034;3.744;2023-09-08T12:12:00;4.10;;;3.67;;
21624;SDS011;10974;51.034;3.744;2023-09-08T12:14:28;4.27;;;3.87;;
21624;SDS011;10974;51.034;3.744;2023-09-08T12:17:04;4.17;;;3.87;;
21624;SDS011;10974;51.034;3.744;2023-09-08T12:19:32;6.23;;;4.57;;
21624;SDS011;10974;51.034;3.744;2023-09-08T12:22:01;4.77;;;4.30;;
21624;SDS011;10974;51.034;3.744;2023-09-08T12:27:17;4.60;;;4.17;;
21624;SDS011;10974;51.034;3.744;2023-09-08T12:32:19;4.90;;;4.50;;
21624;SDS011;10974;51.034;3.744;2023-09-08T12:34:45;4.40;;;4.00;;
21624;SDS011;10974;51.034;3.744;2023-09-08T12:37:11;4.10;;;3.80;;
21624;SDS011;10974;51.034;3.744;2023-09-08T12:39:40;4.03;;;3.73;;
21624;SDS011;10974;51.034;3.744;2023-09-08T12:42:06;4.33;;;3.93;;
21624;SDS011;10974;51.034;3.744;2023-09-08T12:44:32;4.17;;;3.87;;
21624;SDS011;10974;51.034;3.744;2023-09-08T12:46:58;4.77;;;4.40;;
21624;SDS011;10974;51.034;3.744;2023-09-08T12:49:25;5.63;;;4.00;;
21624;SDS011;10974;51.034;3.744;2023-09-08T12:51:51;4.87;;;4.33;;
21624;SDS011;10974;51.034;3.744;2023-09-08T12:54:17;4.90;;;4.50;;
21624;SDS011;10974;51.034;3.744;2023-09-08T12:56:43;4.30;;;3.90;;
21624;SDS011;10974;51.034;3.744;2023-09-08T12:59:09;5.93;;;4.20;;
21624;SDS011;10974;51.034;3.744;2023-09-08T13:01:35;4.63;;;3.97;;
21624;SDS011;10974;51.034;3.744;2023-09-08T13:04:01;4.67;;;4.17;;
21624;SDS011;10974;51.034;3.744;2023-09-08T13:06:27;4.47;;;4.07;;
21624;SDS011;10974;51.034;3.744;2023-09-08T13:08:53;4.33;;;3.90;;
21624;SDS011;10974;51.034;3.744;2023-09-08T13:11:19;4.37;;;3.73;;
21624;SDS011;10974;51.034;3.744;2023-09-08T13:13:45;3.90;;;3.60;;
21624;SDS011;10974;51.034;3.744;2023-09-08T13:16:11;3.83;;;3.53;;
21624;SDS011;10974;51.034;3.744;2023-09-08T13:18:37;4.17;;;3.80;;
21624;SDS011;10974;51.034;3.744;2023-09-08T13:21:06;4.63;;;4.23;;
21624;SDS011;10974;51.034;3.744;2023-09-08T13:23:32;4.23;;;3.87;;
21624;SDS011;10974;51.034;3.744;2023-09-08T13:25:58;4.73;;;4.30;;
21624;SDS011;10974;51.034;3.744;2023-09-08T13:28:24;4.27;;;3.87;;
21624;SDS011;10974;51.034;3.744;2023-09-08T13:30:50;4.47;;;4.00;;
21624;SDS011;10974;51.034;3.744;2023-09-08T13:33:17;3.67;;;3.40;;
21624;SDS011;10974;51.034;3.744;2023-09-08T13:35:43;4.33;;;3.93;;
21624;SDS011;10974;51.034;3.744;2023-09-08T13:38:09;5.30;;;3.53;;
21624;SDS011;10974;51.034;3.744;2023-09-08T13:40:35;3.90;;;3.60;;
21624;SDS011;10974;51.034;3.744;2023-09-08T13:43:01;3.80;;;3.50;;
21624;SDS011;10974;51.034;3.744;2023-09-08T13:45:27;3.83;;;3.53;;
21624;SDS011;10974;51.034;3.744;2023-09-08T13:47:53;4.97;;;4.00;;
21624;SDS011;10974;51.034;3.744;2023-09-08T13:50:19;4.10;;;3.80;;
21624;SDS011;10974;51.034;3.744;2023-09-08T13:52:45;4.67;;;3.77;;
21624;SDS011;10974;51.034;3.744;2023-09-08T13:55:11;5.17;;;3.93;;
21624;SDS011;10974;51.034;3.744;2023-09-08T13:57:37;4.57;;;4.17;;
21624;SDS011;10974;51.034;3.744;2023-09-08T14:00:04;4.20;;;3.80;;
21624;SDS011;10974;51.034;3.744;2023-09-08T14:02:30;4.07;;;3.77;;
21624;SDS011;10974;51.034;3.744;2023-09-08T14:04:56;4.00;;;3.60;;
21624;SDS011;10974;51.034;3.744;2023-09-08T14:07:22;3.93;;;3.63;;
21624;SDS011;10974;51.034;3.744;2023-09-08T14:09:48;4.50;;;4.10;;
21624;SDS011;10974;51.034;3.744;2023-09-08T14:12:15;4.50;;;4.10;;
21624;SDS011;10974;51.034;3.744;2023-09-08T14:14:41;5.27;;;4.30;;
21624;SDS011;10974;51.034;3.744;2023-09-08T14:17:07;5.00;;;4.47;;
21624;SDS011;10974;51.034;3.744;2023-09-08T14:19:33;4.63;;;4.10;;
21624;SDS011;10974;51.034;3.744;2023-09-08T14:21:59;5.00;;;4.60;;
21624;SDS011;10974;51.034;3.744;2023-09-08T14:24:25;4.63;;;4.07;;
21624;SDS011;10974;51.034;3.744;2023-09-08T14:26:51;4.47;;;4.07;;
21624;SDS011;10974;51.034;3.744;2023-09-08T14:29:17;5.77;;;5.20;;
21624;SDS011;10974;51.034;3.744;2023-09-08T14:31:43;7.47;;;4.07;;
21624;SDS011;10974;51.034;3.744;2023-09-08T14:34:09;4.30;;;3.90;;
21624;SDS011;10974;51.034;3.744;2023-09-08T14:36:36;3.67;;;3.30;;
21624;SDS011;10974;51.034;3.744;2023-09-08T14:39:02;4.53;;;3.50;;
21624;SDS011;10974;51.034;3.744;2023-09-08T14:41:28;4.00;;;3.60;;
21624;SDS011;10974;51.034;3.744;2023-09-08T14:43:54;3.27;;;2.97;;
21624;SDS011;10974;51.034;3.744;2023-09-08T14:46:22;3.30;;;3.00;;
21624;SDS011;10974;51.034;3.744;2023-09-08T14:48:48;3.03;;;2.83;;
21624;SDS011;10974;51.034;3.744;2023-09-08T14:51:14;3.13;;;2.93;;
21624;SDS011;10974;51.034;3.744;2023-09-08T14:53:40;4.10;;;2.80;;
21624;SDS011;10974;51.034;3.744;2023-09-08T14:56:06;3.53;;;2.83;;
21624;SDS011;10974;51.034;3.744;2023-09-08T14:58:32;3.97;;;3.03;;
21624;SDS011;10974;51.034;3.744;2023-09-08T15:01:03;3.10;;;2.80;;
21624;SDS011;10974;51.034;3.744;2023-09-08T15:03:32;5.50;;;3.30;;
21624;SDS011;10974;51.034;3.744;2023-09-08T15:05:58;5.40;;;2.73;;
21624;SDS011;10974;51.034;3.744;2023-09-08T15:08:24;3.47;;;3.00;;
21624;SDS011;10974;51.034;3.744;2023-09-08T15:10:50;3.77;;;2.90;;
21624;SDS011;10974;51.034;3.744;2023-09-08T15:13:17;4.10;;;3.10;;
21624;SDS011;10974;51.034;3.744;2023-09-08T15:15:43;3.27;;;3.00;;
21624;SDS011;10974;51.034;3.744;2023-09-08T15:18:10;3.40;;;3.10;;
21624;SDS011;10974;51.034;3.744;2023-09-08T15:20:36;4.33;;;2.67;;
21624;SDS011;10974;51.034;3.744;2023-09-08T15:23:02;2.50;;;2.30;;
21624;SDS011;10974;51.034;3.744;2023-09-08T15:25:28;2.73;;;2.30;;
21624;SDS011;10974;51.034;3.744;2023-09-08T15:27:54;3.13;;;2.83;;
21624;SDS011;10974;51.034;3.744;2023-09-08T15:30:21;3.10;;;2.80;;
21624;SDS011;10974;51.034;3.744;2023-09-08T15:32:47;3.20;;;2.90;;
21624;SDS011;10974;51.034;3.744;2023-09-08T15:35:13;4.27;;;3.33;;
21624;SDS011;10974;51.034;3.744;2023-09-08T15:37:39;3.53;;;2.93;;
21624;SDS011;10974;51.034;3.744;2023-09-08T15:40:05;3.90;;;3.00;;
21624;SDS011;10974;51.034;3.744;2023-09-08T15:42:38;2.70;;;2.50;;
21624;SDS011;10974;51.034;3.744;2023-09-08T15:45:05;4.20;;;2.93;;
21624;SDS011;10974;51.034;3.744;2023-09-08T15:47:31;3.00;;;2.70;;
21624;SDS011;10974;51.034;3.744;2023-09-08T15:49:57;2.77;;;2.57;;
21624;SDS011;10974;51.034;3.744;2023-09-08T15:52:23;2.43;;;2.20;;
21624;SDS011;10974;51.034;3.744;2023-09-08T15:54:49;2.60;;;2.40;;
21624;SDS011;10974;51.034;3.744;2023-09-08T15:57:15;2.87;;;2.67;;
21624;SDS011;10974;51.034;3.744;2023-09-08T15:59:41;3.07;;;2.80;;
21624;SDS011;10974;51.034;3.744;2023-09-08T16:02:07;2.40;;;2.13;;
21624;SDS011;10974;51.034;3.744;2023-09-08T16:04:33;1.80;;;1.70;;
21624;SDS011;10974;51.034;3.744;2023-09-08T16:06:59;1.70;;;1.60;;
21624;SDS011;10974;51.034;3.744;2023-09-08T16:09:25;1.93;;;1.83;;
21624;SDS011;10974;51.034;3.744;2023-09-08T16:11:51;2.70;;;2.50;;
21624;SDS011;10974;51.034;3.744;2023-09-08T16:14:17;2.00;;;1.90;;
21624;SDS011;10974;51.034;3.744;2023-09-08T16:16:43;2.57;;;2.37;;
21624;SDS011;10974;51.034;3.744;2023-09-08T16:19:09;2.67;;;2.47;;
21624;SDS011;10974;51.034;3.744;2023-09-08T16:21:35;2.20;;;2.10;;
21624;SDS011;10974;51.034;3.744;2023-09-08T16:24:01;3.63;;;2.90;;
21624;SDS011;10974;51.034;3.744;2023-09-08T16:26:27;4.33;;;3.07;;
21624;SDS011;10974;51.034;3.744;2023-09-08T16:28:53;3.37;;;3.07;;
21624;SDS011;10974;51.034;3.744;2023-09-08T16:31:19;2.80;;;2.60;;
21624;SDS011;10974;51.034;3.744;2023-09-08T16:33:46;3.10;;;2.50;;
21624;SDS011;10974;51.034;3.744;2023-09-08T16:36:12;2.77;;;2.47;;
21624;SDS011;10974;51.034;3.744;2023-09-08T16:38:38;3.07;;;2.77;;
21624;SDS011;10974;51.034;3.744;2023-09-08T16:41:04;2.50;;;2.30;;
21624;SDS011;10974;51.034;3.744;2023-09-08T16:43:30;2.10;;;2.00;;
21624;SDS011;10974;51.034;3.744;2023-09-08T16:45:56;1.90;;;1.80;;
21624;SDS011;10974;51.034;3.744;2023-09-08T16:48:22;1.80;;;1.70;;
21624;SDS011;10974;51.034;3.744;2023-09-08T16:50:48;1.90;;;1.80;;
21624;SDS011;10974;51.034;3.744;2023-09-08T16:53:14;2.00;;;1.90;;
21624;SDS011;10974;51.034;3.744;2023-09-08T16:55:40;2.23;;;2.03;;
21624;SDS011;10974;51.034;3.744;2023-09-08T16:58:06;1.80;;;1.70;;
21624;SDS011;10974;51.034;3.744;2023-09-08T17:00:32;2.07;;;1.90;;
21624;SDS011;10974;51.034;3.744;2023-09-08T17:02:59;2.63;;;2.43;;
21624;SDS011;10974;51.034;3.744;2023-09-08T17:05:25;3.30;;;3.00;;
21624;SDS011;10974;51.034;3.744;2023-09-08T17:07:51;3.20;;;2.90;;
21624;SDS011;10974;51.034;3.744;2023-09-08T17:10:21;3.47;;;3.17;;
21624;SDS011;10974;51.034;3.744;2023-09-08T17:12:47;3.60;;;3.30;;
21624;SDS011;10974;51.034;3.744;2023-09-08T17:15:13;4.00;;;3.30;;
21624;SDS011;10974;51.034;3.744;2023-09-08T17:17:40;3.17;;;2.87;;
21624;SDS011;10974;51.034;3.744;2023-09-08T17:20:06;3.40;;;3.10;;
21624;SDS011;10974;51.034;3.744;2023-09-08T17:22:32;3.17;;;2.90;;
21624;SDS011;10974;51.034;3.744;2023-09-08T17:24:58;3.67;;;3.37;;
21624;SDS011;10974;51.034;3.744;2023-09-08T17:27:24;5.30;;;4.10;;
21624;SDS011;10974;51.034;3.744;2023-09-08T17:29:50;3.40;;;3.10;;
21624;SDS011;10974;51.034;3.744;2023-09-08T17:32:16;4.23;;;3.50;;
21624;SDS011;10974;51.034;3.744;2023-09-08T17:34:42;3.83;;;3.50;;
21624;SDS011;10974;51.034;3.744;2023-09-08T17:37:08;3.63;;;3.17;;
21624;SDS011;10974;51.034;3.744;2023-09-08T17:39:34;3.50;;;3.10;;
21624;SDS011;10974;51.034;3.744;2023-09-08T17:42:00;7.90;;;3.93;;
21624;SDS011;10974;51.034;3.744;2023-09-08T17:44:26;12.67;;;4.80;;
21624;SDS011;10974;51.034;3.744;2023-09-08T17:46:52;15.27;;;4.23;;
21624;SDS011;10974;51.034;3.744;2023-09-08T17:49:19;15.07;;;4.37;;
21624;SDS011;10974;51.034;3.744;2023-09-08T17:51:45;11.80;;;4.50;;
21624;SDS011;10974;51.034;3.744;2023-09-08T17:54:11;8.63;;;4.27;;
21624;SDS011;10974;51.034;3.744;2023-09-08T17:56:37;14.00;;;4.60;;
21624;SDS011;10974;51.034;3.744;2023-09-08T17:59:03;22.73;;;5.07;;
21624;SDS011;10974;51.034;3.744;2023-09-08T18:01:29;20.00;;;5.47;;
21624;SDS011;10974;51.034;3.744;2023-09-08T18:03:55;10.97;;;4.83;;
21624;SDS011;10974;51.034;3.744;2023-09-08T18:06:21;16.20;;;5.30;;
21624;SDS011;10974;51.034;3.744;2023-09-08T18:08:47;24.13;;;5.93;;
21624;SDS011;10974;51.034;3.744;2023-09-08T18:11:16;23.70;;;5.23;;
21624;SDS011;10974;51.034;3.744;2023-09-08T18:13:44;22.47;;;5.80;;
21624;SDS011;10974;51.034;3.744;2023-09-08T18:16:11;16.47;;;4.77;;
21624;SDS011;10974;51.034;3.744;2023-09-08T18:18:36;19.20;;;5.60;;
21624;SDS011;10974;51.034;3.744;2023-09-08T18:21:03;18.47;;;5.43;;
21624;SDS011;10974;51.034;3.744;2023-09-08T18:23:29;12.67;;;4.40;;
21624;SDS011;10974;51.034;3.744;2023-09-08T18:25:55;13.97;;;5.23;;
21624;SDS011;10974;51.034;3.744;2023-09-08T18:28:21;18.10;;;5.67;;
21624;SDS011;10974;51.034;3.744;2023-09-08T18:30:47;23.93;;;5.63;;
21624;SDS011;10974;51.034;3.744;2023-09-08T18:33:14;14.10;;;5.50;;